sensor_id;sensor_type;location;lat;lon;timestamp;pressure;altitude;pressure_sealevel;temperature;humidity
33506;BME280;19843;51.040;13.782;2023-02-28T00:00:38;101714.28;;;1.14;78.94
33506;BME280;19843;51.040;13.782;2023-02-28T00:03:06;101716.94;;;1.10;78.90
33506;BME280;19843;51.040;13.782;2023-02-28T00:05:34;101718.78;;;0.98;79.38
33506;BME280;19843;51.040;13.782;2023-02-28T00:08:03;101718.75;;;1.03;79.83
33506;BME280;19843;51.040;13.782;2023-02-28T00:10:31;101719.56;;;1.14;78.71
33506;BME280;19843;51.040;13.782;2023-02-28T00:13:00;101723.00;;;1.22;77.71
33506;BME280;19843;51.040;13.782;2023-02-28T00:15:28;101717.72;;;1.25;77.23
33506;BME280;19843;51.040;13.782;2023-02-28T00:17:55;101717.72;;;1.22;77.32
33506;BME280;19843;51.040;13.782;2023-02-28T00:20:23;101708.13;;;1.14;78.50
33506;BME280;19843;51.040;13.782;2023-02-28T00:22:52;101715.09;;;1.18;79.08
33506;BME280;19843;51.040;13.782;2023-02-28T00:25:22;101714.28;;;1.11;79.21
33506;BME280;19843;51.040;13.782;2023-02-28T00:27:51;101715.16;;;1.16;79.32
33506;BME280;19843;51.040;13.782;2023-02-28T00:30:19;101713.47;;;1.04;79.35
33506;BME280;19843;51.040;13.782;2023-02-28T00:32:47;101717.06;;;0.90;80.45
33506;BME280;19843;51.040;13.782;2023-02-28T00:35:15;101720.56;;;0.96;79.96
33506;BME280;19843;51.040;13.782;2023-02-28T00:37:43;101715.31;;;0.93;79.25
33506;BME280;19843;51.040;13.782;2023-02-28T00:40:10;101713.47;;;1.03;78.73
33506;BME280;19843;51.040;13.782;2023-02-28T00:42:40;101708.19;;;1.01;79.61
33506;BME280;19843;51.040;13.782;2023-02-28T00:45:08;101712.63;;;0.95;79.66
33506;BME280;19843;51.040;13.782;2023-02-28T00:47:35;101713.63;;;0.74;80.63
33506;BME280;19843;51.040;13.782;2023-02-28T00:50:04;101712.78;;;0.72;81.26
33506;BME280;19843;51.040;13.782;2023-02-28T00:52:32;101717.22;;;0.67;82.04
33506;BME280;19843;51.040;13.782;2023-02-28T00:54:59;101711.88;;;0.76;81.49
33506;BME280;19843;51.040;13.782;2023-02-28T00:57:27;101708.31;;;0.83;81.15
33506;BME280;19843;51.040;13.782;2023-02-28T00:59:56;101707.47;;;0.76;80.88
33506;BME280;19843;51.040;13.782;2023-02-28T01:02:23;101709.22;;;0.82;80.71
33506;BME280;19843;51.040;13.782;2023-02-28T01:04:50;101710.94;;;0.81;80.67
33506;BME280;19843;51.040;13.782;2023-02-28T01:07:18;101715.34;;;0.86;80.27
33506;BME280;19843;51.040;13.782;2023-02-28T01:09:45;101716.19;;;0.89;79.69
33506;BME280;19843;51.040;13.782;2023-02-28T01:12:13;101711.78;;;0.90;79.91
33506;BME280;19843;51.040;13.782;2023-02-28T01:14:40;101710.84;;;0.98;79.07
33506;BME280;19843;51.040;13.782;2023-02-28T01:17:10;101712.66;;;0.93;78.87
33506;BME280;19843;51.040;13.782;2023-02-28T01:19:37;101710.84;;;0.95;78.75
33506;BME280;19843;51.040;13.782;2023-02-28T01:22:05;101706.44;;;0.97;78.28
33506;BME280;19843;51.040;13.782;2023-02-28T01:24:33;101703.81;;;1.00;77.54
33506;BME280;19843;51.040;13.782;2023-02-28T01:27:00;101709.13;;;0.96;77.86
33506;BME280;19843;51.040;13.782;2023-02-28T01:29:28;101711.75;;;0.94;77.50
33506;BME280;19843;51.040;13.782;2023-02-28T01:31:55;101708.28;;;0.89;77.88
33506;BME280;19843;51.040;13.782;2023-02-28T01:34:24;101703.88;;;0.88;78.79
33506;BME280;19843;51.040;13.782;2023-02-28T01:36:52;101699.59;;;0.69;79.54
33506;BME280;19843;51.040;13.782;2023-02-28T01:39:19;101700.41;;;0.78;79.09
33506;BME280;19843;51.040;13.782;2023-02-28T01:41:46;101698.69;;;0.73;79.15
33506;BME280;19843;51.040;13.782;2023-02-28T01:47:19;101695.16;;;0.74;79.78
33506;BME280;19843;51.040;13.782;2023-02-28T01:49:48;101698.81;;;0.53;80.67
33506;BME280;19843;51.040;13.782;2023-02-28T01:52:18;101697.06;;;0.47;81.25
33506;BME280;19843;51.040;13.782;2023-02-28T01:54:49;101693.56;;;0.44;81.61
33506;BME280;19843;51.040;13.782;2023-02-28T01:57:19;101701.50;;;0.39;81.41
33506;BME280;19843;51.040;13.782;2023-02-28T01:59:52;101702.41;;;0.36;81.51
33506;BME280;19843;51.040;13.782;2023-02-28T02:02:22;101692.66;;;0.43;81.47
33506;BME280;19843;51.040;13.782;2023-02-28T02:04:55;101687.31;;;0.61;80.88
33506;BME280;19843;51.040;13.782;2023-02-28T02:07:25;101688.22;;;0.54;79.95
33506;BME280;19843;51.040;13.782;2023-02-28T02:10:00;101696.19;;;0.45;80.82
33506;BME280;19843;51.040;13.782;2023-02-28T02:12:39;101687.31;;;0.61;80.53
33506;BME280;19843;51.040;13.782;2023-02-28T02:15:14;101693.38;;;0.80;78.84
33506;BME280;19843;51.040;13.782;2023-02-28T02:17:46;101694.38;;;0.59;80.02
33506;BME280;19843;51.040;13.782;2023-02-28T02:20:59;101694.34;;;0.61;80.36
33506;BME280;19843;51.040;13.782;2023-02-28T02:23:47;101690.94;;;0.44;81.12
33506;BME280;19843;51.040;13.782;2023-02-28T02:26:50;101680.41;;;0.33;81.76
33506;BME280;19843;51.040;13.782;2023-02-28T02:29:40;101683.03;;;0.39;81.55
33506;BME280;19843;51.040;13.782;2023-02-28T02:32:38;101689.09;;;0.58;81.78
33506;BME280;19843;51.040;13.782;2023-02-28T02:35:15;101679.47;;;0.52;81.60
33506;BME280;19843;51.040;13.782;2023-02-28T02:37:48;101690.03;;;0.46;81.64
33506;BME280;19843;51.040;13.782;2023-02-28T02:40:19;101678.66;;;0.30;82.57
33506;BME280;19843;51.040;13.782;2023-02-28T02:42:51;101687.41;;;0.41;82.11
33506;BME280;19843;51.040;13.782;2023-02-28T02:45:24;101685.63;;;0.45;82.29
33506;BME280;19843;51.040;13.782;2023-02-28T02:47:54;101684.78;;;0.34;82.46
33506;BME280;19843;51.040;13.782;2023-02-28T02:50:29;101687.44;;;0.34;82.84
33506;BME280;19843;51.040;13.782;2023-02-28T02:53:00;101689.16;;;0.44;82.17
33506;BME280;19843;51.040;13.782;2023-02-28T02:55:29;101695.38;;;0.29;82.36
33506;BME280;19843;51.040;13.782;2023-02-28T02:58:02;101689.25;;;0.26;82.73
33506;BME280;19843;51.040;13.782;2023-02-28T03:00:33;101691.88;;;0.24;83.13
33506;BME280;19843;51.040;13.782;2023-02-28T03:03:02;101688.41;;;0.13;83.41
33506;BME280;19843;51.040;13.782;2023-02-28T03:05:35;101691.88;;;0.18;82.87
33506;BME280;19843;51.040;13.782;2023-02-28T03:08:06;101694.53;;;0.13;82.93
33506;BME280;19843;51.040;13.782;2023-02-28T03:10:36;101693.72;;;-0.07;83.90
33506;BME280;19843;51.040;13.782;2023-02-28T03:13:19;101694.56;;;0.16;82.97
33506;BME280;19843;51.040;13.782;2023-02-28T03:16:07;101693.69;;;0.13;83.38
33506;BME280;19843;51.040;13.782;2023-02-28T03:18:44;101696.34;;;-0.03;83.81
33506;BME280;19843;51.040;13.782;2023-02-28T03:21:21;101693.75;;;-0.12;84.37
33506;BME280;19843;51.040;13.782;2023-02-28T03:23:56;101692.84;;;0.00;84.57
33506;BME280;19843;51.040;13.782;2023-02-28T03:26:27;101683.19;;;0.01;84.52
33506;BME280;19843;51.040;13.782;2023-02-28T03:29:02;101696.41;;;-0.29;85.25
33506;BME280;19843;51.040;13.782;2023-02-28T03:31:32;101691.19;;;-0.47;85.85
33506;BME280;19843;51.040;13.782;2023-02-28T03:34:07;101693.81;;;-0.56;86.75
33506;BME280;19843;51.040;13.782;2023-02-28T03:36:39;101693.78;;;-0.50;86.78
33506;BME280;19843;51.040;13.782;2023-02-28T03:39:14;101694.69;;;-0.67;87.24
33506;BME280;19843;51.040;13.782;2023-02-28T03:41:45;101692.94;;;-0.40;86.33
33506;BME280;19843;51.040;13.782;2023-02-28T03:44:19;101690.28;;;-0.51;86.50
33506;BME280;19843;51.040;13.782;2023-02-28T03:46:56;101692.94;;;-0.43;83.68
33506;BME280;19843;51.040;13.782;2023-02-28T03:49:27;101694.69;;;-0.45;84.22
33506;BME280;19843;51.040;13.782;2023-02-28T03:52:00;101695.59;;;-0.48;84.80
33506;BME280;19843;51.040;13.782;2023-02-28T03:54:32;101696.47;;;-0.66;85.74
33506;BME280;19843;51.040;13.782;2023-02-28T03:57:05;101704.34;;;-0.44;84.61
33506;BME280;19843;51.040;13.782;2023-02-28T03:59:37;101703.47;;;-0.61;84.57
33506;BME280;19843;51.040;13.782;2023-02-28T04:02:07;101699.97;;;-0.70;84.91
33506;BME280;19843;51.040;13.782;2023-02-28T04:04:35;101700.84;;;-0.72;84.61
33506;BME280;19843;51.040;13.782;2023-02-28T04:07:06;101705.22;;;-0.51;83.55
33506;BME280;19843;51.040;13.782;2023-02-28T04:09:34;101708.75;;;-0.86;84.39
33506;BME280;19843;51.040;13.782;2023-02-28T04:12:01;101710.47;;;-0.82;84.60
33506;BME280;19843;51.040;13.782;2023-02-28T04:14:29;101717.53;;;-0.72;85.42
33506;BME280;19843;51.040;13.782;2023-02-28T04:16:57;101720.16;;;-0.86;85.42
33506;BME280;19843;51.040;13.782;2023-02-28T04:19:24;101722.75;;;-0.89;86.27
33506;BME280;19843;51.040;13.782;2023-02-28T04:21:52;101717.50;;;-0.73;86.39
33506;BME280;19843;51.040;13.782;2023-02-28T04:24:23;101724.56;;;-0.86;87.38
33506;BME280;19843;51.040;13.782;2023-02-28T04:26:52;101719.28;;;-0.74;86.58
33506;BME280;19843;51.040;13.782;2023-02-28T04:29:22;101720.16;;;-0.75;86.56
33506;BME280;19843;51.040;13.782;2023-02-28T04:31:50;101727.16;;;-0.85;86.88
33506;BME280;19843;51.040;13.782;2023-02-28T04:34:19;101729.78;;;-0.85;87.32
33506;BME280;19843;51.040;13.782;2023-02-28T04:36:47;101725.41;;;-0.96;87.68
33506;BME280;19843;51.040;13.782;2023-02-28T04:39:38;101728.00;;;-1.02;87.58
33506;BME280;19843;51.040;13.782;2023-02-28T04:42:05;101735.00;;;-1.20;88.15
33506;BME280;19843;51.040;13.782;2023-02-28T04:44:33;101727.97;;;-1.19;88.37
33506;BME280;19843;51.040;13.782;2023-02-28T04:47:00;101728.91;;;-1.02;88.01
33506;BME280;19843;51.040;13.782;2023-02-28T04:49:28;101738.56;;;-0.87;87.39
33506;BME280;19843;51.040;13.782;2023-02-28T04:51:55;101735.06;;;-0.83;87.14
33506;BME280;19843;51.040;13.782;2023-02-28T04:54:23;101728.03;;;-1.09;88.38
33506;BME280;19843;51.040;13.782;2023-02-28T04:56:52;101728.88;;;-1.14;88.71
33506;BME280;19843;51.040;13.782;2023-02-28T04:59:19;101729.72;;;-1.26;89.13
33506;BME280;19843;51.040;13.782;2023-02-28T05:01:48;101728.00;;;-1.12;88.73
33506;BME280;19843;51.040;13.782;2023-02-28T05:04:16;101738.53;;;-1.02;88.59
33506;BME280;19843;51.040;13.782;2023-02-28T05:06:44;101728.88;;;-1.10;87.93
33506;BME280;19843;51.040;13.782;2023-02-28T05:09:12;101736.75;;;-1.19;88.48
33506;BME280;19843;51.040;13.782;2023-02-28T05:11:39;101741.03;;;-1.50;89.18
33506;BME280;19843;51.040;13.782;2023-02-28T05:14:10;101739.25;;;-1.59;89.91
33506;BME280;19843;51.040;13.782;2023-02-28T05:16:38;101741.03;;;-1.52;90.34
33506;BME280;19843;51.040;13.782;2023-02-28T05:19:06;101740.13;;;-1.58;90.10
33506;BME280;19843;51.040;13.782;2023-02-28T05:21:35;101752.34;;;-1.71;90.50
33506;BME280;19843;51.040;13.782;2023-02-28T05:24:05;101753.25;;;-1.64;90.47
33506;BME280;19843;51.040;13.782;2023-02-28T05:26:35;101740.97;;;-1.67;90.94
33506;BME280;19843;51.040;13.782;2023-02-28T05:29:03;101751.34;;;-1.89;90.85
33506;BME280;19843;51.040;13.782;2023-02-28T05:31:33;101752.28;;;-1.83;91.49
33506;BME280;19843;51.040;13.782;2023-02-28T05:34:01;101755.75;;;-1.91;91.63
33506;BME280;19843;51.040;13.782;2023-02-28T05:36:30;101751.34;;;-1.93;91.41
33506;BME280;19843;51.040;13.782;2023-02-28T05:38:58;101754.88;;;-1.90;91.75
33506;BME280;19843;51.040;13.782;2023-02-28T05:41:25;101753.97;;;-1.92;91.59
33506;BME280;19843;51.040;13.782;2023-02-28T05:43:53;101755.78;;;-1.86;91.77
33506;BME280;19843;51.040;13.782;2023-02-28T05:46:21;101764.31;;;-2.22;92.37
33506;BME280;19843;51.040;13.782;2023-02-28T05:48:50;101758.19;;;-2.18;92.67
33506;BME280;19843;51.040;13.782;2023-02-28T05:51:17;101760.88;;;-2.07;92.75
33506;BME280;19843;51.040;13.782;2023-02-28T05:53:45;101759.91;;;-2.20;92.96
33506;BME280;19843;51.040;13.782;2023-02-28T05:56:13;101755.72;;;-2.00;92.98
33506;BME280;19843;51.040;13.782;2023-02-28T05:58:40;101757.34;;;-2.16;92.63
33506;BME280;19843;51.040;13.782;2023-02-28T06:01:23;101768.78;;;-2.04;92.77
33506;BME280;19843;51.040;13.782;2023-02-28T06:03:52;101767.75;;;-2.25;92.96
33506;BME280;19843;51.040;13.782;2023-02-28T06:06:19;101766.13;;;-2.12;93.08
33506;BME280;19843;51.040;13.782;2023-02-28T06:08:46;101776.50;;;-2.27;93.02
33506;BME280;19843;51.040;13.782;2023-02-28T06:11:14;101780.03;;;-2.27;93.23
33506;BME280;19843;51.040;13.782;2023-02-28T06:13:41;101781.81;;;-2.21;93.77
33506;BME280;19843;51.040;13.782;2023-02-28T06:16:10;101776.56;;;-2.21;93.88
33506;BME280;19843;51.040;13.782;2023-02-28T06:18:37;101775.78;;;-2.05;92.80
33506;BME280;19843;51.040;13.782;2023-02-28T06:21:06;101774.91;;;-2.10;93.07
33506;BME280;19843;51.040;13.782;2023-02-28T06:23:35;101782.84;;;-2.01;92.62
33506;BME280;19843;51.040;13.782;2023-02-28T06:26:02;101792.53;;;-1.94;92.76
33506;BME280;19843;51.040;13.782;2023-02-28T06:28:30;101799.56;;;-1.93;92.54
33506;BME280;19843;51.040;13.782;2023-02-28T06:30:58;101793.41;;;-1.92;92.51
33506;BME280;19843;51.040;13.782;2023-02-28T06:33:25;101795.25;;;-1.81;92.23
33506;BME280;19843;51.040;13.782;2023-02-28T06:35:52;101803.19;;;-1.72;91.68
33506;BME280;19843;51.040;13.782;2023-02-28T06:38:21;101804.94;;;-1.71;91.29
33506;BME280;19843;51.040;13.782;2023-02-28T06:40:53;101811.03;;;-1.75;91.33
33506;BME280;19843;51.040;13.782;2023-02-28T06:43:21;101815.44;;;-1.76;91.44
33506;BME280;19843;51.040;13.782;2023-02-28T06:45:48;101815.47;;;-1.71;91.12
33506;BME280;19843;51.040;13.782;2023-02-28T06:48:16;101823.34;;;-1.71;90.66
33506;BME280;19843;51.040;13.782;2023-02-28T06:50:44;101824.34;;;-1.54;89.96
33506;BME280;19843;51.040;13.782;2023-02-28T06:53:11;101823.53;;;-1.37;89.37
33506;BME280;19843;51.040;13.782;2023-02-28T06:55:40;101819.25;;;-1.17;87.83
33506;BME280;19843;51.040;13.782;2023-02-28T06:58:08;101824.56;;;-0.98;87.04
33506;BME280;19843;51.040;13.782;2023-02-28T07:00:41;101831.66;;;-0.77;85.47
33506;BME280;19843;51.040;13.782;2023-02-28T07:03:08;101823.78;;;-0.65;84.92
33506;BME280;19843;51.040;13.782;2023-02-28T07:05:36;101824.69;;;-0.49;83.53
33506;BME280;19843;51.040;13.782;2023-02-28T07:08:04;101828.22;;;-0.26;82.45
33506;BME280;19843;51.040;13.782;2023-02-28T07:10:32;101824.72;;;0.03;81.31
33506;BME280;19843;51.040;13.782;2023-02-28T07:13:01;101832.59;;;0.28;79.78
33506;BME280;19843;51.040;13.782;2023-02-28T07:15:30;101827.25;;;0.49;78.58
33506;BME280;19843;51.040;13.782;2023-02-28T07:17:57;101834.22;;;0.72;77.48
33506;BME280;19843;51.040;13.782;2023-02-28T07:20:25;101830.66;;;0.85;75.22
33506;BME280;19843;51.040;13.782;2023-02-28T07:22:52;101826.25;;;0.87;73.90
33506;BME280;19843;51.040;13.782;2023-02-28T07:25:22;101828.09;;;0.73;73.70
33506;BME280;19843;51.040;13.782;2023-02-28T07:27:50;101830.66;;;0.87;73.26
33506;BME280;19843;51.040;13.782;2023-02-28T07:30:19;101824.44;;;0.95;72.22
33506;BME280;19843;51.040;13.782;2023-02-28T07:32:46;101831.50;;;0.92;72.00
33506;BME280;19843;51.040;13.782;2023-02-28T07:35:14;101825.28;;;1.02;71.96
33506;BME280;19843;51.040;13.782;2023-02-28T07:37:42;101840.13;;;1.32;71.05
33506;BME280;19843;51.040;13.782;2023-02-28T07:40:11;101830.34;;;1.46;70.35
33506;BME280;19843;51.040;13.782;2023-02-28T07:42:39;101825.91;;;1.49;69.06
33506;BME280;19843;51.040;13.782;2023-02-28T07:45:08;101834.56;;;1.69;69.25
33506;BME280;19843;51.040;13.782;2023-02-28T07:47:39;101833.56;;;1.85;67.82
33506;BME280;19843;51.040;13.782;2023-02-28T07:50:08;101835.22;;;2.00;67.74
33506;BME280;19843;51.040;13.782;2023-02-28T07:52:36;101829.94;;;2.00;68.09
33506;BME280;19843;51.040;13.782;2023-02-28T07:55:05;101834.00;;;2.34;67.33
33506;BME280;19843;51.040;13.782;2023-02-28T07:57:33;101838.38;;;2.41;67.18
33506;BME280;19843;51.040;13.782;2023-02-28T08:00:01;101835.53;;;2.56;66.42
33506;BME280;19843;51.040;13.782;2023-02-28T08:02:29;101826.66;;;2.59;66.59
33506;BME280;19843;51.040;13.782;2023-02-28T08:04:59;101835.63;;;2.47;68.33
33506;BME280;19843;51.040;13.782;2023-02-28T08:07:27;101840.72;;;2.68;67.16
33506;BME280;19843;51.040;13.782;2023-02-28T08:09:54;101841.47;;;2.78;65.95
33506;BME280;19843;51.040;13.782;2023-02-28T08:12:22;101830.59;;;3.01;65.53
33506;BME280;19843;51.040;13.782;2023-02-28T08:14:49;101832.22;;;3.11;66.09
33506;BME280;19843;51.040;13.782;2023-02-28T08:17:17;101837.78;;;2.90;65.11
33506;BME280;19843;51.040;13.782;2023-02-28T08:19:45;101840.72;;;2.68;66.32
33506;BME280;19843;51.040;13.782;2023-02-28T08:22:13;101837.03;;;2.79;66.19
33506;BME280;19843;51.040;13.782;2023-02-28T08:24:41;101830.13;;;2.65;66.31
33506;BME280;19843;51.040;13.782;2023-02-28T08:27:09;101835.44;;;2.65;66.50
33506;BME280;19843;51.040;13.782;2023-02-28T08:29:37;101840.72;;;2.68;67.24
33506;BME280;19843;51.040;13.782;2023-02-28T08:32:05;101833.59;;;2.72;66.34
33506;BME280;19843;51.040;13.782;2023-02-28T08:34:45;101844.97;;;2.80;67.23
33506;BME280;19843;51.040;13.782;2023-02-28T08:37:14;101840.00;;;2.49;67.89
33506;BME280;19843;51.040;13.782;2023-02-28T08:39:42;101842.41;;;2.74;67.58
33506;BME280;19843;51.040;13.782;2023-02-28T08:42:09;101837.94;;;2.78;67.53
33506;BME280;19843;51.040;13.782;2023-02-28T08:44:37;101842.97;;;3.01;67.22
33506;BME280;19843;51.040;13.782;2023-02-28T08:47:04;101846.53;;;2.98;65.93
33506;BME280;19843;51.040;13.782;2023-02-28T08:49:32;101841.97;;;3.09;65.88
33506;BME280;19843;51.040;13.782;2023-02-28T08:51:59;101835.69;;;3.18;65.31
33506;BME280;19843;51.040;13.782;2023-02-28T08:54:28;101844.38;;;3.26;63.87
33506;BME280;19843;51.040;13.782;2023-02-28T08:56:57;101839.72;;;3.45;62.62
33506;BME280;19843;51.040;13.782;2023-02-28T08:59:25;101842.66;;;3.25;61.39
33506;BME280;19843;51.040;13.782;2023-02-28T09:01:52;101841.59;;;3.37;62.42
33506;BME280;19843;51.040;13.782;2023-02-28T09:04:19;101828.59;;;3.78;61.09
33506;BME280;19843;51.040;13.782;2023-02-28T09:06:50;101834.56;;;3.90;60.22
33506;BME280;19843;51.040;13.782;2023-02-28T09:09:17;101832.03;;;3.84;59.59
33506;BME280;19843;51.040;13.782;2023-02-28T09:11:46;101830.38;;;4.30;58.56
33506;BME280;19843;51.040;13.782;2023-02-28T09:14:13;101828.56;;;4.32;58.43
33506;BME280;19843;51.040;13.782;2023-02-28T09:16:41;101824.69;;;4.50;56.54
33506;BME280;19843;51.040;13.782;2023-02-28T09:19:10;101820.31;;;4.91;55.30
33506;BME280;19843;51.040;13.782;2023-02-28T09:21:38;101821.88;;;4.99;55.93
33506;BME280;19843;51.040;13.782;2023-02-28T09:24:06;101830.50;;;5.12;54.81
33506;BME280;19843;51.040;13.782;2023-02-28T09:26:34;101818.69;;;5.24;53.99
33506;BME280;19843;51.040;13.782;2023-02-28T09:29:13;101821.06;;;4.97;54.99
33506;BME280;19843;51.040;13.782;2023-02-28T09:31:42;101822.50;;;5.12;53.91
33506;BME280;19843;51.040;13.782;2023-02-28T09:34:10;101821.31;;;4.85;54.06
33506;BME280;19843;51.040;13.782;2023-02-28T09:36:38;101818.13;;;5.10;54.90
33506;BME280;19843;51.040;13.782;2023-02-28T09:39:12;101820.44;;;4.85;51.57
33506;BME280;19843;51.040;13.782;2023-02-28T09:41:43;101818.53;;;4.48;52.61
33506;BME280;19843;51.040;13.782;2023-02-28T09:44:22;101820.81;;;4.66;54.29
33506;BME280;19843;51.040;13.782;2023-02-28T09:46:56;101818.66;;;4.85;52.98
33506;BME280;19843;51.040;13.782;2023-02-28T09:49:31;101808.88;;;4.86;51.73
33506;BME280;19843;51.040;13.782;2023-02-28T09:52:03;101814.16;;;4.45;51.31
33506;BME280;19843;51.040;13.782;2023-02-28T09:54:35;101810.09;;;4.71;52.09
33506;BME280;19843;51.040;13.782;2023-02-28T09:57:06;101815.41;;;4.71;50.47
33506;BME280;19843;51.040;13.782;2023-02-28T09:59:41;101815.81;;;4.94;49.72
33506;BME280;19843;51.040;13.782;2023-02-28T10:02:19;101818.88;;;5.16;51.34
33506;BME280;19843;51.040;13.782;2023-02-28T10:04:52;101816.31;;;5.12;50.41
33506;BME280;19843;51.040;13.782;2023-02-28T10:07:38;101817.78;;;4.85;51.40
33506;BME280;19843;51.040;13.782;2023-02-28T10:10:19;101822.31;;;4.34;50.83
33506;BME280;19843;51.040;13.782;2023-02-28T10:12:51;101828.59;;;4.30;50.34
33506;BME280;19843;51.040;13.782;2023-02-28T10:15:22;101823.53;;;4.16;51.58
33506;BME280;19843;51.040;13.782;2023-02-28T10:17:54;101822.03;;;4.00;49.90
33506;BME280;19843;51.040;13.782;2023-02-28T10:20:36;101819.78;;;4.27;50.06
33506;BME280;19843;51.040;13.782;2023-02-28T10:23:11;101830.81;;;4.04;50.56
33506;BME280;19843;51.040;13.782;2023-02-28T10:25:43;101824.16;;;3.80;50.41
33506;BME280;19843;51.040;13.782;2023-02-28T10:28:16;101824.47;;;3.60;51.66
33506;BME280;19843;51.040;13.782;2023-02-28T10:30:47;101826.47;;;3.42;51.73
33506;BME280;19843;51.040;13.782;2023-02-28T10:33:19;101828.03;;;3.57;52.70
33506;BME280;19843;51.040;13.782;2023-02-28T10:35:48;101828.03;;;3.57;53.60
33506;BME280;19843;51.040;13.782;2023-02-28T10:38:19;101830.88;;;3.45;53.05
33506;BME280;19843;51.040;13.782;2023-02-28T10:40:47;101825.53;;;3.46;51.81
33506;BME280;19843;51.040;13.782;2023-02-28T10:43:20;101823.81;;;3.45;53.03
33506;BME280;19843;51.040;13.782;2023-02-28T10:46:04;101827.28;;;3.47;52.78
33506;BME280;19843;51.040;13.782;2023-02-28T10:48:38;101831.56;;;3.58;52.84
33506;BME280;19843;51.040;13.782;2023-02-28T10:51:08;101818.25;;;3.61;52.25
33506;BME280;19843;51.040;13.782;2023-02-28T10:53:39;101816.50;;;3.60;52.01
33506;BME280;19843;51.040;13.782;2023-02-28T10:56:26;101817.94;;;3.79;53.22
33506;BME280;19843;51.040;13.782;2023-02-28T10:58:56;101805.09;;;4.09;50.96
33506;BME280;19843;51.040;13.782;2023-02-28T11:01:36;101800.78;;;4.50;49.55
33506;BME280;19843;51.040;13.782;2023-02-28T11:04:16;101798.72;;;4.64;49.44
33506;BME280;19843;51.040;13.782;2023-02-28T11:06:44;101793.53;;;4.56;50.23
33506;BME280;19843;51.040;13.782;2023-02-28T11:09:17;101795.31;;;4.56;50.37
33506;BME280;19843;51.040;13.782;2023-02-28T11:11:47;101797.13;;;4.54;50.12
33506;BME280;19843;51.040;13.782;2023-02-28T11:14:20;101796.47;;;4.43;50.57
33506;BME280;19843;51.040;13.782;2023-02-28T11:16:50;101784.47;;;4.22;51.77
33506;BME280;19843;51.040;13.782;2023-02-28T11:19:20;101791.56;;;4.23;51.54
33506;BME280;19843;51.040;13.782;2023-02-28T11:21:53;101792.78;;;4.02;50.66
33506;BME280;19843;51.040;13.782;2023-02-28T11:24:24;101790.28;;;3.95;51.38
33506;BME280;19843;51.040;13.782;2023-02-28T11:26:55;101793.88;;;3.93;51.54
33506;BME280;19843;51.040;13.782;2023-02-28T11:29:24;101789.75;;;3.75;50.91
33506;BME280;19843;51.040;13.782;2023-02-28T11:32:12;101788.06;;;3.68;51.16
33506;BME280;19843;51.040;13.782;2023-02-28T11:34:42;101786.31;;;3.67;51.27
33506;BME280;19843;51.040;13.782;2023-02-28T11:37:13;101780.38;;;3.51;52.07
33506;BME280;19843;51.040;13.782;2023-02-28T11:39:42;101784.75;;;3.53;51.49
33506;BME280;19843;51.040;13.782;2023-02-28T11:42:31;101777.56;;;3.62;51.49
33506;BME280;19843;51.040;13.782;2023-02-28T11:45:12;101773.59;;;3.87;51.44
33506;BME280;19843;51.040;13.782;2023-02-28T11:47:47;101770.50;;;4.13;51.84
33506;BME280;19843;51.040;13.782;2023-02-28T11:50:40;101759.28;;;3.97;50.10
33506;BME280;19843;51.040;13.782;2023-02-28T11:53:19;101767.31;;;4.39;50.59
33506;BME280;19843;51.040;13.782;2023-02-28T11:55:52;101765.34;;;4.49;50.00
33506;BME280;19843;51.040;13.782;2023-02-28T11:58:29;101756.22;;;4.64;49.41
33506;BME280;19843;51.040;13.782;2023-02-28T12:01:11;101750.78;;;4.69;49.08
33506;BME280;19843;51.040;13.782;2023-02-28T12:03:58;101762.81;;;4.87;50.75
33506;BME280;19843;51.040;13.782;2023-02-28T12:06:32;101752.31;;;4.80;48.92
33506;BME280;19843;51.040;13.782;2023-02-28T12:09:10;101750.38;;;4.89;49.32
33506;BME280;19843;51.040;13.782;2023-02-28T12:11:49;101746.09;;;4.81;48.16
33506;BME280;19843;51.040;13.782;2023-02-28T12:14:31;101748.94;;;4.72;49.07
33506;BME280;19843;51.040;13.782;2023-02-28T12:17:16;101748.81;;;4.78;48.84
33506;BME280;19843;51.040;13.782;2023-02-28T12:19:52;101753.16;;;4.82;49.03
33506;BME280;19843;51.040;13.782;2023-02-28T12:22:27;101756.66;;;4.85;49.01
33506;BME280;19843;51.040;13.782;2023-02-28T12:25:34;101748.75;;;4.81;48.96
33506;BME280;19843;51.040;13.782;2023-02-28T12:28:09;101755.44;;;4.99;48.94
33506;BME280;19843;51.040;13.782;2023-02-28T12:30:43;101745.06;;;4.89;47.89
33506;BME280;19843;51.040;13.782;2023-02-28T12:33:16;101750.81;;;5.08;48.94
33506;BME280;19843;51.040;13.782;2023-02-28T12:35:50;101748.13;;;5.09;48.76
33506;BME280;19843;51.040;13.782;2023-02-28T12:38:20;101751.47;;;5.17;48.64
33506;BME280;19843;51.040;13.782;2023-02-28T12:40:53;101747.72;;;5.26;48.78
33506;BME280;19843;51.040;13.782;2023-02-28T12:43:27;101742.91;;;5.43;49.33
33506;BME280;19843;51.040;13.782;2023-02-28T12:45:59;101737.09;;;5.26;49.16
33506;BME280;19843;51.040;13.782;2023-02-28T12:48:36;101740.47;;;4.95;49.54
33506;BME280;19843;51.040;13.782;2023-02-28T12:51:07;101741.34;;;4.96;49.92
33506;BME280;19843;51.040;13.782;2023-02-28T12:53:44;101737.94;;;4.91;50.12
33506;BME280;19843;51.040;13.782;2023-02-28T12:56:19;101733.91;;;4.71;49.23
33506;BME280;19843;51.040;13.782;2023-02-28T12:58:52;101742.28;;;4.53;49.63
33506;BME280;19843;51.040;13.782;2023-02-28T13:01:42;101736.75;;;4.62;49.57
33506;BME280;19843;51.040;13.782;2023-02-28T13:04:32;101734.72;;;4.75;50.29
33506;BME280;19843;51.040;13.782;2023-02-28T13:07:19;101732.16;;;4.70;49.45
33506;BME280;19843;51.040;13.782;2023-02-28T13:09:51;101729.84;;;4.95;49.60
33506;BME280;19843;51.040;13.782;2023-02-28T13:12:19;101738.06;;;4.85;50.21